createdAt,value
2022-09-03T00:02:34.206Z,19.50
2022-09-03T00:05:11.242Z,19.50
2022-09-03T00:07:52.914Z,19.50
2022-09-03T00:10:30.789Z,19.50
2022-09-03T00:13:03.919Z,19.40
2022-09-03T00:15:38.862Z,19.40
2022-09-03T00:18:11.826Z,19.40
2022-09-03T00:20:46.024Z,19.40
2022-09-03T00:23:21.991Z,19.30
2022-09-03T00:25:58.818Z,19.30
2022-09-03T00:28:37.864Z,19.30
2022-09-03T00:31:18.201Z,19.30
2022-09-03T00:33:49.355Z,19.30
2022-09-03T00:36:24.721Z,19.30
2022-09-03T00:38:53.988Z,19.20
2022-09-03T00:41:34.322Z,19.20
2022-09-03T00:44:27.944Z,19.20
2022-09-03T00:47:09.443Z,19.10
2022-09-03T00:49:58.081Z,19.10
2022-09-03T00:52:45.768Z,19.00
2022-09-03T00:55:32.459Z,19.00
2022-09-03T00:58:30.719Z,19.00
2022-09-03T01:00:58.675Z,19.00
2022-09-03T01:03:41.462Z,18.90
2022-09-03T01:06:20.405Z,18.90
2022-09-03T01:09:27.419Z,18.90
2022-09-03T01:12:07.982Z,18.80
2022-09-03T01:14:58.570Z,18.80
2022-09-03T01:17:43.756Z,18.70
2022-09-03T01:20:49.506Z,18.70
2022-09-03T01:23:57.727Z,18.70
2022-09-03T01:26:43.466Z,18.60
2022-09-03T01:29:27.401Z,18.60
2022-09-03T01:32:07.950Z,18.60
2022-09-03T01:34:55.247Z,18.60
2022-09-03T01:37:36.446Z,18.50
2022-09-03T01:40:20.727Z,18.50
2022-09-03T01:43:04.438Z,18.50
2022-09-03T01:45:52.410Z,18.40
2022-09-03T01:48:39.581Z,18.40
2022-09-03T01:51:20.897Z,18.40
2022-09-03T01:54:37.818Z,18.40
2022-09-03T01:57:37.390Z,18.40
2022-09-03T02:00:13.162Z,18.30
2022-09-03T02:02:47.628Z,18.30
2022-09-03T02:05:24.081Z,18.20
2022-09-03T02:07:58.238Z,18.20
2022-09-03T02:10:32.303Z,18.10
2022-09-03T02:13:07.241Z,18.10
2022-09-03T02:15:39.132Z,18.10
2022-09-03T02:18:17.816Z,18.00
2022-09-03T02:20:47.897Z,18.00
2022-09-03T02:23:16.949Z,17.90
2022-09-03T02:25:51.265Z,17.90
2022-09-03T02:28:19.675Z,17.80
2022-09-03T02:30:48.249Z,17.80
2022-09-03T02:33:17.861Z,17.80
2022-09-03T02:35:46.356Z,17.70
2022-09-03T02:38:18.024Z,17.70
2022-09-03T02:40:49.258Z,17.60
2022-09-03T02:43:26.113Z,17.60
2022-09-03T02:46:01.937Z,17.60
2022-09-03T02:48:31.737Z,17.50
2022-09-03T02:50:59.914Z,17.50
2022-09-03T02:53:28.940Z,17.50
2022-09-03T02:56:00.860Z,17.40
2022-09-03T02:58:31.492Z,17.40
2022-09-03T03:01:00.416Z,17.40
2022-09-03T03:03:28.570Z,17.40
2022-09-03T03:06:02.676Z,17.30
2022-09-03T03:08:32.862Z,17.30
2022-09-03T03:11:01.014Z,17.20
2022-09-03T03:13:31.196Z,17.20
2022-09-03T03:16:00.707Z,17.20
2022-09-03T03:18:29.489Z,17.20
2022-09-03T03:21:04.430Z,17.10
2022-09-03T03:23:33.508Z,17.10
2022-09-03T03:26:03.341Z,17.10
2022-09-03T03:28:33.695Z,17.10
2022-09-03T03:31:07.901Z,17.00
2022-09-03T03:33:36.696Z,17.00
2022-09-03T03:36:11.938Z,16.90
2022-09-03T03:38:40.761Z,16.90
2022-09-03T03:41:10.492Z,16.90
2022-09-03T03:43:38.972Z,16.80
2022-09-03T03:46:07.529Z,16.80
2022-09-03T03:48:36.232Z,16.80
2022-09-03T03:51:07.390Z,16.80
2022-09-03T03:53:38.733Z,16.80
2022-09-03T03:56:10.809Z,16.70
2022-09-03T03:58:43.867Z,16.70
2022-09-03T04:01:15.429Z,16.70
2022-09-03T04:03:44.681Z,16.60
2022-09-03T04:06:15.637Z,16.60
2022-09-03T04:08:47.714Z,16.50
2022-09-03T04:11:20.453Z,16.50
2022-09-03T04:13:50.026Z,16.50
2022-09-03T04:16:20.806Z,16.40
2022-09-03T04:18:49.439Z,16.40
2022-09-03T04:21:21.050Z,16.40
2022-09-03T04:23:52.154Z,16.40
2022-09-03T04:26:22.961Z,16.30
2022-09-03T04:28:51.264Z,16.30
2022-09-03T04:31:21.729Z,16.30
2022-09-03T04:33:51.152Z,16.30
2022-09-03T04:36:21.706Z,16.30
2022-09-03T04:38:54.050Z,16.30
2022-09-03T04:41:25.707Z,16.30
2022-09-03T04:43:55.634Z,16.30
2022-09-03T04:46:27.701Z,16.20
2022-09-03T04:48:57.906Z,16.20
2022-09-03T04:51:29.900Z,16.20
2022-09-03T04:54:01.640Z,16.20
2022-09-03T04:56:32.273Z,16.10
2022-09-03T04:59:02.188Z,16.10
2022-09-03T05:01:33.169Z,16.10
2022-09-03T05:04:02.101Z,16.10
2022-09-03T05:06:32.430Z,16.10
2022-09-03T05:09:02.674Z,16.10
2022-09-03T05:11:31.468Z,16.10
2022-09-03T05:14:01.659Z,16.10
2022-09-03T05:16:31.220Z,16.10
2022-09-03T05:19:01.660Z,16.10
2022-09-03T05:21:30.822Z,16.10
2022-09-03T05:24:02.951Z,16.00
2022-09-03T05:26:34.818Z,16.00
2022-09-03T05:29:07.480Z,16.00
2022-09-03T05:31:39.106Z,16.00
2022-09-03T05:34:08.078Z,16.00
2022-09-03T05:36:38.677Z,16.00
2022-09-03T05:39:08.860Z,16.00
2022-09-03T05:41:36.886Z,16.00
2022-09-03T05:44:06.004Z,16.00
2022-09-03T05:46:36.872Z,16.10
2022-09-03T05:49:07.853Z,16.10
2022-09-03T05:51:37.399Z,16.10
2022-09-03T05:54:05.604Z,16.10
2022-09-03T05:56:36.174Z,16.10
2022-09-03T05:59:07.351Z,16.10
2022-09-03T06:01:50.916Z,16.10
2022-09-03T06:04:21.509Z,16.10
2022-09-03T06:06:50.348Z,16.10
2022-09-03T06:09:23.189Z,16.10
2022-09-03T06:11:53.874Z,16.10
2022-09-03T06:14:23.590Z,16.10
2022-09-03T06:16:53.156Z,16.20
2022-09-03T06:19:24.267Z,16.20
2022-09-03T06:21:53.893Z,16.20
2022-09-03T06:24:26.235Z,16.30
2022-09-03T06:26:57.690Z,16.30
2022-09-03T06:29:25.853Z,16.40
2022-09-03T06:31:53.847Z,16.40
2022-09-03T06:34:22.989Z,16.50
2022-09-03T06:36:51.581Z,16.50
2022-09-03T06:39:22.623Z,16.50
2022-09-03T06:41:51.752Z,16.60
2022-09-03T06:44:21.054Z,16.60
2022-09-03T06:46:49.027Z,16.70
2022-09-03T06:49:17.541Z,16.70
2022-09-03T06:51:45.566Z,16.80
2022-09-03T06:54:15.696Z,16.90
2022-09-03T06:56:43.650Z,16.90
2022-09-03T06:59:13.881Z,17.00
2022-09-03T07:01:46.165Z,17.10
2022-09-03T07:04:19.164Z,17.10
2022-09-03T07:06:48.614Z,17.20
2022-09-03T07:09:18.935Z,17.30
2022-09-03T07:11:48.751Z,17.30
2022-09-03T07:14:19.254Z,17.40
2022-09-03T07:16:52.659Z,17.50
2022-09-03T07:19:20.692Z,17.60
2022-09-03T07:21:50.555Z,17.70
2022-09-03T07:24:22.759Z,17.80
2022-09-03T07:26:51.057Z,17.90
2022-09-03T07:29:21.417Z,18.00
2022-09-03T07:31:53.207Z,18.10
2022-09-03T07:34:26.364Z,18.20
2022-09-03T07:36:54.994Z,18.40
2022-09-03T07:39:23.172Z,18.50
2022-09-03T07:41:51.202Z,18.60
2022-09-03T07:44:20.299Z,18.80
2022-09-03T07:46:51.957Z,18.90
2022-09-03T07:49:21.615Z,19.00
2022-09-03T07:51:52.882Z,19.20
2022-09-03T07:54:21.800Z,19.30
2022-09-03T07:56:50.335Z,19.40
2022-09-03T07:59:19.231Z,19.50
2022-09-03T08:01:47.168Z,19.60
2022-09-03T08:04:16.496Z,19.80
2022-09-03T08:06:44.505Z,19.90
2022-09-03T08:09:14.829Z,20.00
2022-09-03T08:11:44.803Z,20.20
2022-09-03T08:14:15.363Z,20.40
2022-09-03T08:16:47.212Z,20.50
2022-09-03T08:19:18.057Z,20.70
2022-09-03T08:21:46.025Z,20.80
2022-09-03T08:24:16.552Z,21.00
2022-09-03T08:26:50.607Z,21.20
2022-09-03T08:29:19.895Z,21.30
2022-09-03T08:31:48.021Z,21.40
2022-09-03T08:34:17.790Z,21.50
2022-09-03T08:36:47.497Z,21.60
2022-09-03T08:39:15.682Z,21.70
2022-09-03T08:42:08.257Z,21.80
2022-09-03T08:44:47.410Z,21.90
2022-09-03T08:47:22.963Z,22.00
2022-09-03T08:49:57.597Z,22.00
2022-09-03T08:52:33.382Z,22.10
2022-09-03T08:55:18.630Z,22.10
2022-09-03T08:57:50.686Z,22.30
2022-09-03T09:00:20.066Z,22.40
2022-09-03T09:03:05.704Z,22.50
2022-09-03T09:05:51.683Z,22.60
2022-09-03T09:08:28.776Z,22.70
2022-09-03T09:11:09.611Z,22.80
2022-09-03T09:13:50.655Z,22.90
2022-09-03T09:16:27.656Z,23.10
2022-09-03T09:19:14.576Z,23.20
2022-09-03T09:21:52.049Z,23.30
2022-09-03T09:24:26.291Z,23.30
2022-09-03T09:27:01.270Z,23.30
2022-09-03T09:29:34.041Z,23.50
2022-09-03T09:32:05.644Z,23.50
2022-09-03T09:34:37.164Z,23.60
2022-09-03T09:37:13.176Z,23.70
2022-09-03T09:39:42.986Z,23.80
2022-09-03T09:42:13.261Z,23.90
2022-09-03T09:44:44.288Z,24.00
2022-09-03T09:47:21.976Z,24.10
2022-09-03T09:49:55.587Z,24.10
2022-09-03T09:52:29.090Z,24.10
2022-09-03T09:55:09.965Z,24.20
2022-09-03T09:57:39.807Z,24.30
2022-09-03T10:00:15.382Z,24.40
2022-09-03T10:02:51.061Z,24.60
2022-09-03T10:05:25.594Z,24.70
2022-09-03T10:07:59.928Z,24.80
2022-09-03T10:10:32.979Z,24.90
2022-09-03T10:13:09.292Z,25.00
2022-09-03T10:15:47.442Z,25.10
2022-09-03T10:18:28.373Z,25.20
2022-09-03T10:21:06.254Z,25.30
2022-09-03T10:23:53.644Z,25.30
2022-09-03T10:26:29.025Z,25.40
2022-09-03T10:29:03.239Z,25.50
2022-09-03T10:32:12.929Z,25.60
2022-09-03T10:34:58.746Z,25.60
2022-09-03T10:37:39.491Z,25.60
2022-09-03T10:40:30.699Z,25.70
2022-09-03T10:43:21.245Z,25.70
2022-09-03T10:46:06.085Z,25.80
2022-09-03T10:49:00.723Z,25.90
2022-09-03T10:51:35.955Z,25.90
2022-09-03T10:54:39.749Z,25.90
2022-09-03T10:57:23.720Z,26.00
2022-09-03T11:00:08.474Z,26.00
2022-09-03T11:03:26.781Z,26.10
2022-09-03T11:06:04.062Z,26.10
2022-09-03T11:08:38.722Z,26.10
2022-09-03T11:11:15.457Z,26.10
2022-09-03T11:13:51.839Z,26.10
2022-09-03T11:16:27.015Z,26.10
2022-09-03T11:19:02.183Z,26.20
2022-09-03T11:21:33.620Z,26.20
2022-09-03T11:24:13.576Z,26.30
2022-09-03T11:26:45.902Z,26.50
2022-09-03T11:29:23.813Z,26.50
2022-09-03T11:32:02.881Z,26.70
2022-09-03T11:34:34.695Z,26.70
2022-09-03T11:37:20.021Z,26.80
2022-09-03T11:40:04.708Z,26.90
2022-09-03T11:42:38.246Z,27.00
2022-09-03T11:45:39.017Z,27.20
2022-09-03T11:48:39.779Z,27.30
2022-09-03T11:51:22.744Z,27.40
2022-09-03T11:54:26.294Z,27.50
2022-09-03T11:57:13.122Z,27.50
2022-09-03T11:59:43.860Z,27.60
2022-09-03T12:02:39.337Z,27.60
2022-09-03T12:05:23.521Z,27.60
2022-09-03T12:08:44.946Z,27.60
2022-09-03T12:11:39.447Z,27.70
2022-09-03T12:14:22.152Z,27.70
2022-09-03T12:17:13.053Z,27.90
2022-09-03T12:19:52.378Z,28.00
2022-09-03T12:22:23.546Z,28.00
2022-09-03T12:24:52.721Z,28.00
2022-09-03T12:27:24.734Z,28.10
2022-09-03T12:29:58.010Z,28.20
2022-09-03T12:32:27.715Z,28.20
2022-09-03T12:34:57.347Z,28.20
2022-09-03T12:40:22.377Z,28.20
2022-09-03T12:42:51.703Z,28.20
2022-09-03T12:45:23.776Z,28.20
2022-09-03T12:47:53.203Z,28.20
2022-09-03T12:50:25.481Z,28.20
2022-09-03T12:52:58.977Z,28.20
2022-09-03T12:55:36.722Z,28.30
2022-09-03T12:58:13.958Z,28.40
2022-09-03T13:00:49.195Z,28.40
2022-09-03T13:03:25.979Z,28.30
2022-09-03T13:06:00.472Z,28.30
2022-09-03T13:08:34.477Z,28.30
2022-09-03T13:11:06.272Z,28.40
2022-09-03T13:13:37.651Z,28.40
2022-09-03T13:16:39.552Z,28.40
2022-09-03T13:19:20.999Z,28.40
2022-09-03T13:22:05.176Z,28.30
2022-09-03T13:25:02.096Z,28.30
2022-09-03T13:27:39.453Z,28.40
2022-09-03T13:30:12.721Z,28.40
2022-09-03T13:32:57.902Z,28.50
2022-09-03T13:35:35.751Z,28.50
2022-09-03T13:38:23.905Z,28.60
2022-09-03T13:40:59.662Z,28.60
2022-09-03T13:43:35.907Z,28.70
2022-09-03T13:46:09.070Z,28.70
2022-09-03T13:49:02.353Z,28.80
2022-09-03T13:51:38.244Z,28.80
2022-09-03T13:54:36.265Z,28.90
2022-09-03T13:57:09.973Z,29.00
2022-09-03T13:59:55.047Z,29.00
2022-09-03T14:02:34.377Z,29.10
2022-09-03T14:05:13.058Z,29.20
2022-09-03T14:07:57.289Z,29.20
2022-09-03T14:10:47.151Z,29.20
2022-09-03T14:13:26.019Z,29.30
2022-09-03T14:16:05.861Z,29.30
2022-09-03T14:18:51.169Z,29.30
2022-09-03T14:21:25.772Z,29.40
2022-09-03T14:24:04.090Z,29.40
2022-09-03T14:26:39.835Z,29.30
2022-09-03T14:29:17.821Z,29.20
2022-09-03T14:32:19.388Z,29.10
2022-09-03T14:35:11.998Z,28.90
2022-09-03T14:38:12.111Z,28.90
2022-09-03T14:40:46.285Z,28.80
2022-09-03T14:43:52.855Z,28.70
2022-09-03T14:46:42.318Z,28.70
2022-09-03T14:49:35.569Z,28.60
2022-09-03T14:52:34.159Z,28.50
2022-09-03T14:55:29.353Z,28.40
2022-09-03T14:58:37.001Z,28.30
2022-09-03T15:01:15.084Z,28.20
2022-09-03T15:04:26.929Z,28.20
2022-09-03T15:07:25.193Z,28.10
2022-09-03T15:10:06.504Z,28.10
2022-09-03T15:12:41.491Z,28.10
2022-09-03T15:15:19.456Z,28.00
2022-09-03T15:18:10.560Z,28.00
2022-09-03T15:20:51.485Z,27.90
2022-09-03T15:23:39.882Z,27.90
2022-09-03T15:26:37.902Z,27.90
2022-09-03T15:29:21.463Z,27.80
2022-09-03T15:32:04.870Z,27.80
2022-09-03T15:35:00.911Z,27.70
2022-09-03T15:37:36.217Z,27.70
2022-09-03T15:40:11.356Z,27.70
2022-09-03T15:42:39.793Z,27.60
2022-09-03T15:45:31.710Z,27.60
2022-09-03T15:48:20.852Z,27.60
2022-09-03T15:50:59.441Z,27.50
2022-09-03T15:53:37.674Z,27.40
2022-09-03T15:56:32.578Z,27.30
2022-09-03T15:59:15.893Z,27.20
2022-09-03T16:01:55.207Z,27.10
2022-09-03T16:04:56.935Z,27.20
2022-09-03T16:07:38.621Z,27.10
2022-09-03T16:10:29.980Z,27.10
2022-09-03T16:13:07.791Z,27.10
2022-09-03T16:15:42.551Z,27.10
2022-09-03T16:18:31.415Z,27.10
2022-09-03T16:21:07.100Z,27.10
2022-09-03T16:23:47.371Z,27.00
2022-09-03T16:26:27.323Z,27.00
2022-09-03T16:29:00.794Z,26.90
2022-09-03T16:31:50.682Z,26.80
2022-09-03T16:34:32.671Z,26.80
2022-09-03T16:37:16.347Z,26.80
2022-09-03T16:39:58.228Z,26.80
2022-09-03T16:42:35.482Z,26.70
2022-09-03T16:45:18.499Z,26.70
2022-09-03T16:48:09.872Z,26.70
2022-09-03T16:50:57.965Z,26.60
2022-09-03T16:53:45.028Z,26.60
2022-09-03T16:56:34.187Z,26.50
2022-09-03T16:59:19.646Z,26.50
2022-09-03T17:02:23.663Z,26.50
2022-09-03T17:05:16.001Z,26.50
2022-09-03T17:08:04.938Z,26.40
2022-09-03T17:10:46.931Z,26.40
2022-09-03T17:13:58.147Z,26.40
2022-09-03T17:16:43.683Z,26.40
2022-09-03T17:19:30.228Z,26.30
2022-09-03T17:22:20.731Z,26.30
2022-09-03T17:25:00.308Z,26.20
2022-09-03T17:28:21.450Z,26.10
2022-09-03T17:30:59.364Z,26.10
2022-09-03T17:33:47.720Z,26.00
2022-09-03T17:36:19.647Z,26.00
2022-09-03T17:39:44.081Z,26.00
2022-09-03T17:42:24.704Z,25.90
2022-09-03T17:45:14.609Z,25.90
2022-09-03T17:48:20.150Z,25.90
2022-09-03T17:50:57.045Z,25.80
2022-09-03T17:53:35.093Z,25.70
2022-09-03T17:56:08.553Z,25.60
2022-09-03T17:58:42.345Z,25.60
2022-09-03T18:01:21.363Z,25.60
2022-09-03T18:03:55.619Z,25.50
2022-09-03T18:06:36.560Z,25.50
2022-09-03T18:09:19.431Z,25.40
2022-09-03T18:11:51.717Z,25.40
2022-09-03T18:14:29.665Z,25.40
2022-09-03T18:17:14.309Z,25.30
2022-09-03T18:20:08.496Z,25.30
2022-09-03T18:23:08.651Z,25.30
2022-09-03T18:25:58.943Z,25.20
2022-09-03T18:28:57.273Z,25.10
2022-09-03T18:31:43.010Z,25.10
2022-09-03T18:34:30.218Z,25.00
2022-09-03T18:37:18.490Z,25.00
2022-09-03T18:40:05.301Z,25.00
2022-09-03T18:43:11.522Z,24.90
2022-09-03T18:49:21.378Z,24.80
2022-09-03T18:52:19.315Z,24.80
2022-09-03T18:55:23.053Z,24.80
2022-09-03T18:58:29.077Z,24.80
2022-09-03T19:01:26.762Z,24.70
2022-09-03T19:04:27.368Z,24.60
2022-09-03T19:07:26.899Z,24.60
2022-09-03T19:10:21.737Z,24.60
2022-09-03T19:13:31.863Z,24.50
2022-09-03T19:16:28.155Z,24.50
2022-09-03T19:19:45.936Z,24.40
2022-09-03T19:22:50.042Z,24.40
2022-09-03T19:25:36.544Z,24.30
2022-09-03T19:28:32.407Z,24.20
2022-09-03T19:32:01.689Z,24.20
2022-09-03T19:35:15.509Z,24.20
2022-09-03T19:38:19.207Z,24.10
2022-09-03T19:41:20.133Z,24.10
2022-09-03T19:44:26.604Z,24.00
2022-09-03T19:47:18.586Z,24.00
2022-09-03T19:50:22.031Z,23.90
2022-09-03T19:53:14.777Z,24.10
2022-09-03T19:56:07.739Z,23.90
2022-09-03T19:58:59.499Z,23.80
2022-09-03T20:01:52.612Z,23.70
2022-09-03T20:04:46.366Z,23.60
2022-09-03T20:07:32.014Z,23.60
2022-09-03T20:10:23.485Z,23.50
2022-09-03T20:13:01.451Z,23.50
2022-09-03T20:15:46.348Z,23.50
2022-09-03T20:18:28.652Z,23.40
2022-09-03T20:21:11.340Z,23.40
2022-09-03T20:23:54.206Z,23.30
2022-09-03T20:26:45.800Z,23.30
2022-09-03T20:29:46.763Z,23.30
2022-09-03T20:32:33.323Z,23.20
2022-09-03T20:35:11.054Z,23.20
2022-09-03T20:37:45.445Z,23.10
2022-09-03T20:40:26.973Z,23.10
2022-09-03T20:43:25.938Z,23.10
2022-09-03T20:46:09.158Z,23.00
2022-09-03T20:48:47.566Z,23.00
2022-09-03T20:51:22.794Z,23.00
2022-09-03T20:54:11.038Z,23.00
2022-09-03T20:56:59.646Z,22.90
2022-09-03T20:59:48.179Z,22.90
2022-09-03T21:02:34.878Z,22.80
2022-09-03T21:05:14.966Z,22.80
2022-09-03T21:07:57.851Z,22.70
2022-09-03T21:10:34.918Z,22.70
2022-09-03T21:13:15.930Z,22.60
2022-09-03T21:15:58.846Z,22.60
2022-09-03T21:18:43.111Z,22.60
2022-09-03T21:21:26.034Z,22.50
2022-09-03T21:24:04.870Z,22.50
2022-09-03T21:26:39.926Z,22.40
2022-09-03T21:29:21.449Z,22.40
2022-09-03T21:31:59.276Z,22.40
2022-09-03T21:34:32.927Z,22.30
2022-09-03T21:37:06.677Z,22.30
2022-09-03T21:39:43.797Z,22.30
2022-09-03T21:42:21.234Z,22.20
2022-09-03T21:44:56.681Z,22.20
2022-09-03T21:47:28.998Z,22.10
2022-09-03T21:50:13.121Z,22.10
2022-09-03T21:52:53.648Z,22.00
2022-09-03T21:55:28.298Z,22.00
2022-09-03T21:58:22.271Z,21.90
2022-09-03T22:00:57.580Z,21.90
2022-09-03T22:03:26.915Z,21.80
2022-09-03T22:06:02.179Z,21.80
2022-09-03T22:08:38.075Z,21.80
2022-09-03T22:11:17.502Z,21.70
2022-09-03T22:13:57.361Z,21.60
2022-09-03T22:16:33.917Z,21.60
2022-09-03T22:19:03.382Z,21.60
2022-09-03T22:21:37.883Z,21.60
2022-09-03T22:24:23.080Z,21.50
2022-09-03T22:26:58.131Z,21.50
2022-09-03T22:29:41.497Z,21.50
2022-09-03T22:32:35.521Z,21.40
2022-09-03T22:35:46.422Z,21.40
2022-09-03T22:38:53.282Z,21.30
2022-09-03T22:41:50.951Z,21.30
2022-09-03T22:44:43.424Z,21.20
2022-09-03T22:47:22.451Z,21.20
2022-09-03T22:49:59.517Z,21.10
2022-09-03T22:52:38.561Z,21.10
2022-09-03T22:55:20.859Z,21.10
2022-09-03T22:57:59.603Z,21.00
2022-09-03T23:00:29.317Z,21.00
2022-09-03T23:03:08.684Z,20.90
2022-09-03T23:05:46.273Z,20.90
2022-09-03T23:08:26.026Z,20.80
2022-09-03T23:11:03.050Z,20.80
2022-09-03T23:13:41.856Z,20.70
2022-09-03T23:16:19.217Z,20.70
2022-09-03T23:18:51.307Z,20.70
2022-09-03T23:21:29.875Z,20.60
2022-09-03T23:24:09.193Z,20.60
2022-09-03T23:26:42.892Z,20.60
2022-09-03T23:29:20.962Z,20.60
2022-09-03T23:31:50.407Z,20.50
2022-09-03T23:34:18.411Z,20.50
2022-09-03T23:37:32.590Z,20.50
2022-09-03T23:40:12.755Z,20.40
2022-09-03T23:43:04.412Z,20.40
2022-09-03T23:45:42.906Z,20.30
2022-09-03T23:48:23.911Z,20.30
2022-09-03T23:51:07.240Z,20.30
2022-09-03T23:53:51.792Z,20.20
2022-09-03T23:56:53.138Z,20.20
2022-09-03T23:59:33.642Z,20.20
